createdAt,value
2023-03-12T00:01:18.461Z,23.80
2023-03-12T00:03:51.221Z,16.80
2023-03-12T00:06:24.453Z,17.00
2023-03-12T00:08:59.386Z,17.00
2023-03-12T00:11:32.411Z,19.50
2023-03-12T00:14:05.256Z,17.30
2023-03-12T00:16:37.878Z,17.10
2023-03-12T00:19:11.263Z,15.60
2023-03-12T00:21:43.988Z,20.00
2023-03-12T00:24:18.780Z,14.20
2023-03-12T00:26:51.778Z,19.40
2023-03-12T00:29:24.666Z,17.70
2023-03-12T00:31:58.394Z,14.40
2023-03-12T00:34:31.147Z,15.70
2023-03-12T00:37:04.463Z,12.90
2023-03-12T00:39:37.226Z,15.50
2023-03-12T00:42:10.185Z,12.70
2023-03-12T00:44:43.706Z,12.50
2023-03-12T00:47:16.827Z,15.00
2023-03-12T00:49:49.462Z,14.00
2023-03-12T00:52:22.228Z,16.30
2023-03-12T00:54:58.518Z,18.60
2023-03-12T00:57:31.580Z,14.00
2023-03-12T01:00:07.627Z,16.60
2023-03-12T01:02:40.732Z,14.40
2023-03-12T01:05:15.445Z,15.00
2023-03-12T01:07:48.925Z,15.10
2023-03-12T01:10:23.237Z,19.90
2023-03-12T01:12:56.510Z,16.10
2023-03-12T01:15:29.513Z,18.30
2023-03-12T01:18:02.359Z,13.10
2023-03-12T01:20:35.350Z,14.10
2023-03-12T01:23:08.023Z,17.40
2023-03-12T01:25:41.852Z,19.00
2023-03-12T01:28:14.477Z,13.00
2023-03-12T01:30:47.256Z,15.90
2023-03-12T01:33:23.127Z,18.10
2023-03-12T01:35:55.963Z,11.30
2023-03-12T01:38:28.946Z,23.20
2023-03-12T01:41:06.082Z,19.90
2023-03-12T01:43:39.776Z,15.40
2023-03-12T01:46:27.356Z,13.00
2023-03-12T01:49:04.135Z,16.60
2023-03-12T01:51:39.075Z,12.70
2023-03-12T01:54:13.266Z,10.90
2023-03-12T01:56:46.151Z,13.20
2023-03-12T01:59:20.262Z,16.70
2023-03-12T02:01:53.246Z,14.10
2023-03-12T02:04:27.279Z,11.70
2023-03-12T02:07:04.056Z,9.30
2023-03-12T02:09:40.130Z,23.90
2023-03-12T02:12:13.589Z,11.80
2023-03-12T02:14:46.675Z,17.00
2023-03-12T02:17:25.444Z,13.60
2023-03-12T02:20:01.567Z,14.30
2023-03-12T02:22:35.143Z,11.60
2023-03-12T02:25:16.158Z,10.50
2023-03-12T02:27:49.185Z,16.50
2023-03-12T02:30:22.523Z,12.70
2023-03-12T02:33:16.523Z,14.40
2023-03-12T02:35:49.880Z,12.60
2023-03-12T02:38:41.728Z,9.10
2023-03-12T02:41:20.377Z,8.80
2023-03-12T02:44:02.069Z,8.60
2023-03-12T02:46:35.785Z,8.80
2023-03-12T02:49:12.393Z,9.10
2023-03-12T02:51:47.062Z,7.20
2023-03-12T02:54:21.757Z,6.50
2023-03-12T02:56:56.276Z,6.50
2023-03-12T02:59:31.060Z,6.10
2023-03-12T03:02:04.704Z,9.70
2023-03-12T03:04:37.886Z,7.50
2023-03-12T03:07:10.826Z,5.60
2023-03-12T03:09:46.570Z,5.70
2023-03-12T03:12:19.241Z,5.10
2023-03-12T03:14:53.716Z,5.60
2023-03-12T03:17:27.170Z,5.20
2023-03-12T03:20:00.389Z,4.70
2023-03-12T03:22:33.539Z,5.70
2023-03-12T03:25:07.243Z,4.70
2023-03-12T03:27:40.473Z,4.30
2023-03-12T03:30:15.454Z,4.90
2023-03-12T03:32:49.553Z,4.80
2023-03-12T03:35:26.664Z,4.10
2023-03-12T03:37:59.701Z,3.50
2023-03-12T03:40:33.124Z,4.20
2023-03-12T03:43:06.673Z,4.30
2023-03-12T03:45:39.950Z,4.20
2023-03-12T03:48:12.776Z,3.70
2023-03-12T03:50:46.073Z,5.40
2023-03-12T03:53:21.405Z,3.60
2023-03-12T03:55:54.937Z,3.60
2023-03-12T03:58:27.824Z,3.60
2023-03-12T04:01:00.764Z,4.90
2023-03-12T04:03:34.461Z,3.90
2023-03-12T04:06:14.230Z,4.20
2023-03-12T04:08:51.049Z,2.90
2023-03-12T04:11:25.891Z,3.00
2023-03-12T04:14:00.098Z,2.80
2023-03-12T04:16:42.139Z,2.70
2023-03-12T04:19:14.898Z,2.80
2023-03-12T04:21:47.970Z,2.40
2023-03-12T04:24:20.986Z,2.60
2023-03-12T04:26:54.403Z,2.40
2023-03-12T04:29:28.435Z,2.40
2023-03-12T04:32:01.559Z,2.80
2023-03-12T04:34:34.501Z,2.60
2023-03-12T04:37:14.265Z,3.10
2023-03-12T04:39:48.330Z,2.80
2023-03-12T04:42:21.445Z,2.90
2023-03-12T04:44:54.979Z,3.30
2023-03-12T04:47:30.260Z,3.90
2023-03-12T04:50:03.223Z,3.30
2023-03-12T04:52:36.916Z,3.50
2023-03-12T04:55:12.338Z,4.50
2023-03-12T04:57:46.216Z,5.00
2023-03-12T05:00:21.146Z,5.30
2023-03-12T05:02:55.092Z,5.30
2023-03-12T05:05:28.320Z,5.60
2023-03-12T05:08:20.963Z,6.30
2023-03-12T05:10:54.054Z,7.30
2023-03-12T05:13:28.615Z,7.90
2023-03-12T05:16:03.798Z,7.40
2023-03-12T05:18:39.313Z,7.30
2023-03-12T05:21:13.393Z,8.00
2023-03-12T05:23:46.862Z,8.60
2023-03-12T05:26:24.101Z,9.80
2023-03-12T05:28:58.951Z,9.00
2023-03-12T05:31:36.757Z,9.70
2023-03-12T05:34:11.725Z,8.30
2023-03-12T05:36:45.620Z,8.30
2023-03-12T05:39:20.424Z,6.60
2023-03-12T05:41:57.587Z,8.50
2023-03-12T05:44:31.659Z,9.30
2023-03-12T05:47:04.614Z,8.60
2023-03-12T05:49:37.972Z,8.00
2023-03-12T05:52:11.496Z,8.30
2023-03-12T05:54:44.558Z,9.10
2023-03-12T05:57:17.480Z,10.20
2023-03-12T05:59:51.653Z,9.30
2023-03-12T06:02:24.757Z,9.90
2023-03-12T06:04:58.649Z,9.50
2023-03-12T06:07:33.599Z,10.10
2023-03-12T06:10:07.488Z,9.80
2023-03-12T06:12:40.312Z,10.70
2023-03-12T06:15:18.606Z,9.70
2023-03-12T06:17:53.324Z,11.20
2023-03-12T06:20:25.971Z,11.70
2023-03-12T06:23:00.456Z,11.90
2023-03-12T06:25:33.592Z,11.10
2023-03-12T06:28:08.043Z,14.30
2023-03-12T06:30:41.045Z,13.90
2023-03-12T06:33:14.690Z,15.50
2023-03-12T06:35:48.239Z,17.20
2023-03-12T06:38:21.976Z,16.90
2023-03-12T06:41:01.227Z,13.30
2023-03-12T06:43:35.093Z,13.30
2023-03-12T06:46:08.376Z,13.30
2023-03-12T06:48:42.709Z,12.80
2023-03-12T06:51:16.800Z,11.80
2023-03-12T06:53:50.637Z,12.60
2023-03-12T06:56:23.695Z,11.50
2023-03-12T06:58:56.562Z,12.30
2023-03-12T07:01:29.224Z,13.20
2023-03-12T07:04:02.387Z,12.30
2023-03-12T07:06:35.372Z,11.40
2023-03-12T07:09:10.273Z,11.80
2023-03-12T07:11:43.679Z,11.00
2023-03-12T07:14:17.373Z,11.90
2023-03-12T07:16:50.173Z,12.00
2023-03-12T07:19:23.691Z,11.80
2023-03-12T07:21:56.366Z,16.00
2023-03-12T07:24:29.086Z,13.70
2023-03-12T07:27:01.878Z,12.20
2023-03-12T07:29:35.158Z,11.60
2023-03-12T07:32:09.323Z,12.50
2023-03-12T07:34:42.771Z,13.20
2023-03-12T07:37:16.618Z,13.20
2023-03-12T07:39:52.572Z,14.90
2023-03-12T07:42:28.407Z,15.60
2023-03-12T07:45:04.560Z,17.70
2023-03-12T07:47:38.582Z,19.10
2023-03-12T07:50:13.971Z,17.90
2023-03-12T07:52:47.092Z,18.00
2023-03-12T07:55:20.799Z,19.10
2023-03-12T07:57:56.834Z,19.60
2023-03-12T08:00:30.638Z,19.60
2023-03-12T08:03:04.192Z,21.30
2023-03-12T08:05:38.088Z,18.60
2023-03-12T08:08:12.124Z,19.20
2023-03-12T08:10:45.342Z,18.20
2023-03-12T08:13:21.396Z,17.60
2023-03-12T08:15:54.623Z,16.30
2023-03-12T08:18:35.109Z,16.50
2023-03-12T08:21:08.854Z,17.50
2023-03-12T08:23:42.762Z,17.60
2023-03-12T08:26:19.930Z,16.80
2023-03-12T08:28:52.795Z,16.60
2023-03-12T08:31:25.899Z,17.60
2023-03-12T08:33:58.516Z,17.10
2023-03-12T08:36:31.280Z,16.70
2023-03-12T08:39:09.882Z,17.20
2023-03-12T08:41:43.439Z,17.10
2023-03-12T08:44:16.633Z,15.80
2023-03-12T08:46:50.303Z,14.00
2023-03-12T08:49:23.522Z,14.80
2023-03-12T08:51:56.268Z,13.20
2023-03-12T08:54:28.981Z,12.60
2023-03-12T08:57:03.399Z,10.70
2023-03-12T08:59:37.712Z,8.80
2023-03-12T09:02:13.741Z,9.60
2023-03-12T09:04:50.923Z,8.70
2023-03-12T09:07:23.825Z,10.20
2023-03-12T09:09:57.433Z,9.90
2023-03-12T09:12:30.640Z,9.10
2023-03-12T09:15:09.690Z,7.30
2023-03-12T09:17:43.088Z,8.30
2023-03-12T09:20:17.288Z,7.80
2023-03-12T09:22:50.148Z,6.90
2023-03-12T09:25:24.703Z,6.70
2023-03-12T09:27:58.009Z,6.40
2023-03-12T09:30:32.570Z,6.00
2023-03-12T09:33:06.390Z,5.00
2023-03-12T09:35:41.770Z,5.60
2023-03-12T09:38:16.846Z,4.90
2023-03-12T09:40:51.382Z,5.90
2023-03-12T09:43:28.003Z,6.10
2023-03-12T09:46:01.104Z,6.40
2023-03-12T09:48:36.693Z,6.10
2023-03-12T09:51:15.711Z,4.20
2023-03-12T09:53:50.161Z,4.30
2023-03-12T09:56:24.347Z,4.70
2023-03-12T09:58:58.000Z,4.60
2023-03-12T10:01:45.597Z,4.30
2023-03-12T10:04:33.205Z,4.60
2023-03-12T10:07:11.667Z,4.80
2023-03-12T10:10:03.289Z,4.90
2023-03-12T10:12:44.124Z,4.50
2023-03-12T10:15:24.758Z,4.30
2023-03-12T10:18:12.591Z,5.00
2023-03-12T10:20:57.325Z,5.20
2023-03-12T10:23:35.014Z,4.50
2023-03-12T10:26:09.510Z,4.00
2023-03-12T10:28:46.258Z,4.40
2023-03-12T10:31:20.502Z,4.60
2023-03-12T10:33:56.774Z,4.90
2023-03-12T10:36:36.074Z,4.90
2023-03-12T10:39:12.032Z,6.00
2023-03-12T10:41:45.678Z,4.70
2023-03-12T10:44:22.101Z,7.70
2023-03-12T10:47:08.551Z,5.20
2023-03-12T10:49:41.645Z,5.70
2023-03-12T10:52:18.298Z,5.00
2023-03-12T10:54:52.536Z,6.20
2023-03-12T10:57:25.432Z,5.80
2023-03-12T11:00:09.434Z,4.80
2023-03-12T11:02:43.582Z,4.40
2023-03-12T11:05:25.226Z,4.70
2023-03-12T11:08:02.106Z,4.50
2023-03-12T11:10:46.835Z,4.50
2023-03-12T11:13:30.583Z,4.10
2023-03-12T11:16:03.563Z,5.40
2023-03-12T11:18:37.339Z,4.70
2023-03-12T11:21:21.421Z,4.70
2023-03-12T11:24:12.611Z,4.20
2023-03-12T11:26:51.914Z,4.80
2023-03-12T11:29:31.824Z,4.20
2023-03-12T11:32:11.119Z,4.10
2023-03-12T11:34:47.849Z,4.60
2023-03-12T11:37:26.280Z,3.90
2023-03-12T11:40:17.455Z,4.60
2023-03-12T11:43:10.130Z,4.10
2023-03-12T11:45:49.206Z,3.40
2023-03-12T11:48:26.139Z,6.40
2023-03-12T11:51:07.725Z,3.80
2023-03-12T11:53:51.030Z,4.70
2023-03-12T11:56:29.226Z,4.50
2023-03-12T11:59:21.643Z,4.70
2023-03-12T12:02:05.020Z,4.20
2023-03-12T12:05:02.253Z,3.70
2023-03-12T12:07:43.658Z,3.70
2023-03-12T12:10:22.915Z,4.90
2023-03-12T12:13:00.775Z,5.60
2023-03-12T12:15:39.171Z,4.70
2023-03-12T12:18:22.397Z,4.70
2023-03-12T12:20:58.469Z,4.80
2023-03-12T12:23:37.126Z,4.40
2023-03-12T12:26:11.907Z,4.90
2023-03-12T12:29:04.452Z,5.00
2023-03-12T12:31:41.749Z,5.80
2023-03-12T12:35:03.267Z,4.90
2023-03-12T12:37:42.837Z,5.00
2023-03-12T12:40:19.880Z,5.10
2023-03-12T12:42:56.960Z,4.30
2023-03-12T12:45:31.111Z,4.80
2023-03-12T12:48:07.366Z,6.00
2023-03-12T12:50:41.827Z,5.10
2023-03-12T12:53:21.891Z,5.10
2023-03-12T12:56:04.124Z,5.20
2023-03-12T12:58:50.639Z,4.50
2023-03-12T13:01:25.308Z,3.90
2023-03-12T13:04:03.368Z,3.90
2023-03-12T13:06:59.871Z,4.60
2023-03-12T13:09:40.880Z,5.10
2023-03-12T13:12:19.821Z,4.60
2023-03-12T13:14:55.057Z,5.70
2023-03-12T13:17:36.133Z,4.40
2023-03-12T13:20:25.920Z,5.00
2023-03-12T13:23:07.773Z,4.40
2023-03-12T13:26:02.358Z,4.90
2023-03-12T13:28:42.534Z,4.60
2023-03-12T13:31:43.169Z,4.30
2023-03-12T13:34:34.600Z,5.00
2023-03-12T13:37:13.579Z,5.40
2023-03-12T13:39:46.534Z,4.90
2023-03-12T13:42:38.979Z,5.20
2023-03-12T13:45:32.147Z,5.20
2023-03-12T13:48:06.734Z,5.90
2023-03-12T13:50:42.172Z,5.10
2023-03-12T13:53:21.786Z,5.70
2023-03-12T13:56:03.214Z,4.80
2023-03-12T13:58:37.765Z,5.40
2023-03-12T14:01:14.411Z,5.80
2023-03-12T14:03:49.853Z,5.80
2023-03-12T14:06:23.256Z,4.60
2023-03-12T14:09:11.479Z,5.60
2023-03-12T14:11:52.717Z,6.70
2023-03-12T14:14:51.010Z,5.30
2023-03-12T14:17:25.411Z,5.10
2023-03-12T14:20:03.284Z,4.70
2023-03-12T14:22:37.111Z,5.00
2023-03-12T14:25:16.309Z,5.90
2023-03-12T14:27:49.777Z,6.40
2023-03-12T14:30:26.668Z,4.80
2023-03-12T14:33:01.416Z,5.20
2023-03-12T14:35:38.292Z,6.20
2023-03-12T14:38:15.715Z,6.10
2023-03-12T14:40:53.308Z,5.40
2023-03-12T14:43:31.056Z,4.80
2023-03-12T14:46:05.169Z,6.30
2023-03-12T14:48:39.177Z,5.80
2023-03-12T14:51:24.413Z,5.70
2023-03-12T14:53:57.937Z,7.20
2023-03-12T14:56:33.246Z,7.00
2023-03-12T14:59:21.904Z,7.30
2023-03-12T15:01:55.026Z,6.50
2023-03-12T15:04:27.978Z,7.30
2023-03-12T15:07:04.681Z,7.40
2023-03-12T15:09:42.795Z,6.90
2023-03-12T15:12:23.317Z,8.20
2023-03-12T15:14:57.130Z,8.80
2023-03-12T15:17:32.400Z,6.80
2023-03-12T15:20:09.567Z,6.00
2023-03-12T15:22:42.564Z,7.80
2023-03-12T15:25:29.892Z,7.70
2023-03-12T15:28:07.836Z,8.40
2023-03-12T15:30:41.280Z,9.10
2023-03-12T15:33:24.848Z,10.10
2023-03-12T15:36:04.397Z,8.10
2023-03-12T15:38:39.768Z,7.30
2023-03-12T15:41:20.814Z,7.20
2023-03-12T15:43:55.965Z,7.70
2023-03-12T15:46:29.280Z,8.40
2023-03-12T15:49:02.526Z,8.70
2023-03-12T15:51:37.276Z,9.10
2023-03-12T15:54:25.994Z,9.40
2023-03-12T15:57:14.281Z,8.20
2023-03-12T15:59:53.463Z,8.50
2023-03-12T16:02:39.705Z,8.90
2023-03-12T16:05:12.507Z,8.30
2023-03-12T16:07:47.906Z,8.70
2023-03-12T16:10:23.051Z,6.90
2023-03-12T16:13:05.061Z,6.50
2023-03-12T16:15:39.809Z,6.90
2023-03-12T16:18:16.380Z,7.70
2023-03-12T16:20:49.184Z,8.40
2023-03-12T16:23:21.844Z,9.70
2023-03-12T16:25:55.938Z,8.80
2023-03-12T16:28:28.848Z,11.00
2023-03-12T16:31:01.617Z,9.00
2023-03-12T16:33:34.778Z,8.10
2023-03-12T16:36:13.871Z,8.50
2023-03-12T16:38:46.731Z,8.40
2023-03-12T16:41:22.376Z,8.00
2023-03-12T16:43:55.661Z,7.70
2023-03-12T16:46:34.229Z,10.40
2023-03-12T16:49:07.573Z,8.60
2023-03-12T16:51:40.214Z,7.80
2023-03-12T16:54:13.164Z,7.70
2023-03-12T16:56:46.541Z,8.90
2023-03-12T16:59:23.785Z,6.90
2023-03-12T17:01:56.561Z,7.60
2023-03-12T17:04:36.250Z,8.50
2023-03-12T17:07:09.106Z,8.90
2023-03-12T17:09:42.272Z,7.90
2023-03-12T17:12:21.260Z,11.20
2023-03-12T17:14:54.398Z,7.90
2023-03-12T17:17:27.202Z,9.40
2023-03-12T17:20:00.611Z,10.70
2023-03-12T17:22:33.762Z,11.20
2023-03-12T17:25:07.519Z,16.00
2023-03-12T17:27:40.483Z,17.20
2023-03-12T17:30:19.443Z,13.60
2023-03-12T17:32:53.530Z,11.50
2023-03-12T17:35:26.395Z,12.10
2023-03-12T17:37:59.776Z,11.20
2023-03-12T17:40:33.013Z,11.70
2023-03-12T17:43:07.121Z,12.20
2023-03-12T17:45:42.329Z,12.30
2023-03-12T17:48:15.240Z,15.10
2023-03-12T17:50:48.526Z,12.60
2023-03-12T17:53:21.440Z,10.10
2023-03-12T17:55:54.802Z,9.90
2023-03-12T17:58:28.159Z,8.60
2023-03-12T18:01:03.513Z,8.90
2023-03-12T18:03:37.632Z,9.90
2023-03-12T18:06:15.261Z,9.30
2023-03-12T18:08:48.112Z,8.30
2023-03-12T18:11:21.710Z,8.60
2023-03-12T18:13:59.251Z,7.60
2023-03-12T18:16:32.896Z,7.60
2023-03-12T18:19:05.654Z,8.20
2023-03-12T18:21:41.017Z,8.10
2023-03-12T18:24:14.793Z,8.60
2023-03-12T18:26:52.432Z,6.70
2023-03-12T18:29:25.524Z,8.00
2023-03-12T18:31:58.315Z,10.20
2023-03-12T18:34:31.486Z,9.60
2023-03-12T18:37:04.503Z,11.50
2023-03-12T18:39:37.462Z,13.30
2023-03-12T18:42:10.489Z,13.60
2023-03-12T18:44:46.537Z,11.60
2023-03-12T18:47:19.697Z,18.30
2023-03-12T18:49:55.302Z,14.10
2023-03-12T18:52:28.148Z,14.10
2023-03-12T18:55:01.042Z,13.00
2023-03-12T18:57:34.020Z,10.90
2023-03-12T19:00:12.063Z,11.00
2023-03-12T19:02:51.566Z,9.10
2023-03-12T19:05:24.341Z,7.90
2023-03-12T19:07:57.274Z,8.70
2023-03-12T19:10:30.847Z,8.00
2023-03-12T19:13:03.968Z,8.10
2023-03-12T19:15:39.302Z,8.60
2023-03-12T19:18:14.785Z,7.70
2023-03-12T19:20:47.884Z,8.30
2023-03-12T19:23:28.212Z,9.20
2023-03-12T19:26:02.459Z,9.70
2023-03-12T19:28:37.574Z,7.80
2023-03-12T19:31:11.823Z,10.80
2023-03-12T19:33:45.139Z,16.60
2023-03-12T19:36:18.877Z,19.10
2023-03-12T19:38:52.128Z,17.20
2023-03-12T19:41:25.514Z,21.00
2023-03-12T19:43:58.384Z,11.00
2023-03-12T19:46:32.674Z,9.60
2023-03-12T19:49:05.519Z,9.90
2023-03-12T19:51:40.455Z,11.00
2023-03-12T19:54:16.069Z,13.80
2023-03-12T19:56:49.319Z,15.60
2023-03-12T19:59:22.893Z,13.00
2023-03-12T20:01:55.935Z,14.80
2023-03-12T20:04:29.173Z,11.10
2023-03-12T20:07:02.573Z,10.70
2023-03-12T20:09:35.715Z,7.40
2023-03-12T20:12:09.758Z,9.70
2023-03-12T20:14:43.074Z,9.00
2023-03-12T20:17:16.195Z,9.90
2023-03-12T20:19:49.291Z,10.40
2023-03-12T20:22:22.576Z,10.70
2023-03-12T20:25:00.423Z,10.30
2023-03-12T20:27:34.345Z,9.60
2023-03-12T20:30:08.863Z,10.20
2023-03-12T20:32:44.337Z,8.50
2023-03-12T20:35:17.309Z,7.90
2023-03-12T20:37:50.629Z,8.80
2023-03-12T20:40:23.904Z,10.00
2023-03-12T20:43:02.833Z,8.60
2023-03-12T20:45:35.743Z,9.50
2023-03-12T20:48:09.504Z,11.00
2023-03-12T20:50:43.514Z,11.50
2023-03-12T20:53:17.117Z,13.70
2023-03-12T20:55:49.815Z,14.70
2023-03-12T20:58:23.383Z,15.50
2023-03-12T21:01:00.171Z,16.10
2023-03-12T21:03:33.190Z,12.80
2023-03-12T21:06:06.376Z,15.70
2023-03-12T21:08:40.332Z,17.60
2023-03-12T21:11:13.041Z,13.50
2023-03-12T21:13:50.755Z,16.40
2023-03-12T21:16:25.516Z,13.00
2023-03-12T21:18:59.954Z,12.50
2023-03-12T21:21:35.687Z,17.30
2023-03-12T21:24:08.972Z,10.30
2023-03-12T21:26:41.778Z,11.70
2023-03-12T21:29:14.943Z,10.80
2023-03-12T21:31:47.808Z,10.40
2023-03-12T21:34:21.128Z,9.60
2023-03-12T21:36:54.330Z,9.50
2023-03-12T21:39:28.532Z,10.50
2023-03-12T21:42:01.271Z,8.00
2023-03-12T21:44:35.534Z,10.80
2023-03-12T21:47:08.477Z,8.00
2023-03-12T21:49:41.335Z,8.10
2023-03-12T21:52:17.037Z,11.20
2023-03-12T21:54:50.505Z,9.40
2023-03-12T21:57:23.403Z,8.40
2023-03-12T21:59:56.316Z,7.20
2023-03-12T22:02:29.778Z,7.60
2023-03-12T22:05:03.179Z,8.00
2023-03-12T22:07:36.111Z,8.30
2023-03-12T22:10:12.243Z,11.40
2023-03-12T22:12:45.848Z,11.70
2023-03-12T22:15:24.074Z,10.90
2023-03-12T22:17:59.485Z,9.40
2023-03-12T22:20:34.373Z,8.20
2023-03-12T22:23:07.886Z,8.20
2023-03-12T22:25:41.656Z,7.40
2023-03-12T22:28:14.413Z,8.90
2023-03-12T22:30:47.077Z,7.80
2023-03-12T22:33:20.053Z,8.20
2023-03-12T22:35:53.342Z,8.70
2023-03-12T22:38:26.374Z,8.00
2023-03-12T22:40:59.504Z,8.20
2023-03-12T22:43:32.606Z,7.70
2023-03-12T22:46:05.544Z,8.10
2023-03-12T22:48:38.755Z,8.50
2023-03-12T22:51:11.607Z,9.00
2023-03-12T22:53:46.709Z,9.50
2023-03-12T22:56:19.618Z,8.20
2023-03-12T22:58:56.648Z,8.20
2023-03-12T23:01:30.366Z,7.90
2023-03-12T23:04:09.014Z,9.70
2023-03-12T23:06:45.440Z,8.20
2023-03-12T23:09:17.997Z,8.70
2023-03-12T23:11:55.705Z,8.10
2023-03-12T23:14:28.850Z,9.80
2023-03-12T23:17:01.904Z,9.20
2023-03-12T23:19:36.514Z,8.80
2023-03-12T23:22:09.612Z,9.40
2023-03-12T23:24:43.854Z,7.90
2023-03-12T23:27:16.548Z,9.10
2023-03-12T23:29:49.627Z,9.20
2023-03-12T23:32:22.883Z,9.60
2023-03-12T23:34:55.822Z,8.50
2023-03-12T23:37:29.568Z,9.90
2023-03-12T23:40:02.349Z,10.20
2023-03-12T23:42:40.477Z,9.60
2023-03-12T23:45:14.869Z,9.60
2023-03-12T23:47:47.928Z,8.90
2023-03-12T23:50:21.296Z,12.80
2023-03-12T23:52:53.948Z,10.20
2023-03-12T23:55:26.619Z,9.20
2023-03-12T23:57:59.681Z,9.90
